createdAt,value
2023-04-20T00:02:18.102Z,3.13
2023-04-20T00:04:44.625Z,4.73
2023-04-20T00:07:11.149Z,3.83
2023-04-20T00:09:37.710Z,5.67
2023-04-20T00:12:04.524Z,4.50
2023-04-20T00:14:31.018Z,5.23
2023-04-20T00:16:57.627Z,4.77
2023-04-20T00:19:24.126Z,3.83
2023-04-20T00:21:50.631Z,3.97
2023-04-20T00:24:17.132Z,3.53
2023-04-20T00:26:43.610Z,3.27
2023-04-20T00:29:10.069Z,3.73
2023-04-20T00:31:36.909Z,3.30
2023-04-20T00:34:03.400Z,5.57
2023-04-20T00:36:30.042Z,4.77
2023-04-20T00:38:59.029Z,5.07
2023-04-20T00:41:28.437Z,7.03
2023-04-20T00:43:55.025Z,4.37
2023-04-20T00:46:21.893Z,7.40
2023-04-20T00:48:51.752Z,3.07
2023-04-20T00:51:19.355Z,3.47
2023-04-20T00:53:45.980Z,5.10
2023-04-20T00:56:19.452Z,3.67
2023-04-20T00:58:46.699Z,4.50
2023-04-20T01:01:17.675Z,3.57
2023-04-20T01:03:46.360Z,7.97
2023-04-20T01:06:14.622Z,4.87
2023-04-20T01:08:48.873Z,3.77
2023-04-20T01:11:15.488Z,3.30
2023-04-20T01:13:42.865Z,2.93
2023-04-20T01:16:09.566Z,2.83
2023-04-20T01:18:48.209Z,4.87
2023-04-20T01:21:17.250Z,4.03
2023-04-20T01:23:44.854Z,3.67
2023-04-20T01:26:14.869Z,6.93
2023-04-20T01:28:41.802Z,4.73
2023-04-20T01:31:09.590Z,3.57
2023-04-20T01:33:36.686Z,5.87
2023-04-20T01:36:05.043Z,5.93
2023-04-20T01:38:34.445Z,4.33
2023-04-20T01:41:04.362Z,4.70
2023-04-20T01:43:31.605Z,3.87
2023-04-20T01:45:59.779Z,2.80
2023-04-20T01:48:26.395Z,3.40
2023-04-20T01:50:53.620Z,4.60
2023-04-20T01:53:20.356Z,3.20
2023-04-20T01:55:47.574Z,3.93
2023-04-20T01:58:14.387Z,3.97
2023-04-20T02:00:41.039Z,5.90
2023-04-20T02:03:07.645Z,4.27
2023-04-20T02:05:34.188Z,3.50
2023-04-20T02:08:00.680Z,6.87
2023-04-20T02:10:27.159Z,4.07
2023-04-20T02:12:53.607Z,3.83
2023-04-20T02:15:20.152Z,4.43
2023-04-20T02:17:47.348Z,3.20
2023-04-20T02:20:14.523Z,3.60
2023-04-20T02:22:40.975Z,4.63
2023-04-20T02:25:08.859Z,4.87
2023-04-20T02:27:36.831Z,5.00
2023-04-20T02:30:05.822Z,4.90
2023-04-20T02:32:33.103Z,4.50
2023-04-20T02:34:59.559Z,4.07
2023-04-20T02:37:27.240Z,8.83
2023-04-20T02:39:53.741Z,3.90
2023-04-20T02:42:20.215Z,5.07
2023-04-20T02:44:48.230Z,3.80
2023-04-20T02:47:15.368Z,4.33
2023-04-20T02:49:41.957Z,4.30
2023-04-20T02:52:08.635Z,5.10
2023-04-20T02:54:35.133Z,5.60
2023-04-20T02:57:03.419Z,6.93
2023-04-20T02:59:29.864Z,5.70
2023-04-20T03:02:04.908Z,3.93
2023-04-20T03:04:32.076Z,4.60
2023-04-20T03:07:25.030Z,5.77
2023-04-20T03:09:52.238Z,5.07
2023-04-20T03:12:22.967Z,6.47
2023-04-20T03:15:28.315Z,6.83
2023-04-20T03:18:03.817Z,6.93
2023-04-20T03:20:30.744Z,6.67
2023-04-20T03:22:57.208Z,5.80
2023-04-20T03:25:25.105Z,3.93
2023-04-20T03:27:55.669Z,6.07
2023-04-20T03:30:22.184Z,5.23
2023-04-20T03:32:54.336Z,4.63
2023-04-20T03:35:21.001Z,6.00
2023-04-20T03:37:47.790Z,6.37
2023-04-20T03:40:14.420Z,7.47
2023-04-20T03:42:41.392Z,4.33
2023-04-20T03:45:08.445Z,7.77
2023-04-20T03:47:35.102Z,6.77
2023-04-20T03:50:01.603Z,7.13
2023-04-20T03:52:28.108Z,8.53
2023-04-20T03:54:55.304Z,5.07
2023-04-20T03:57:21.915Z,5.53
2023-04-20T03:59:48.632Z,6.03
2023-04-20T04:02:18.691Z,6.77
2023-04-20T04:04:46.773Z,5.63
2023-04-20T04:07:13.573Z,7.07
2023-04-20T04:09:41.813Z,5.55
2023-04-20T04:12:09.108Z,4.70
2023-04-20T04:14:35.700Z,5.33
2023-04-20T04:17:02.553Z,4.93
2023-04-20T04:19:32.184Z,5.37
2023-04-20T04:21:59.673Z,7.20
2023-04-20T04:24:26.815Z,5.60
2023-04-20T04:27:02.143Z,5.33
2023-04-20T04:29:28.926Z,5.37
2023-04-20T04:32:04.152Z,4.90
2023-04-20T04:34:34.749Z,6.50
2023-04-20T04:37:02.436Z,7.10
2023-04-20T04:39:39.758Z,7.53
2023-04-20T04:42:13.473Z,9.23
2023-04-20T04:44:42.681Z,5.57
2023-04-20T04:47:14.262Z,6.87
2023-04-20T04:49:41.017Z,5.53
2023-04-20T04:52:09.004Z,5.27
2023-04-20T04:54:35.834Z,7.20
2023-04-20T04:57:02.910Z,7.57
2023-04-20T04:59:29.445Z,6.90
2023-04-20T05:01:56.310Z,5.93
2023-04-20T05:04:23.139Z,6.57
2023-04-20T05:06:49.657Z,7.80
2023-04-20T05:09:16.560Z,8.13
2023-04-20T05:11:43.408Z,9.10
2023-04-20T05:14:09.904Z,6.73
2023-04-20T05:16:36.441Z,9.87
2023-04-20T05:19:03.451Z,8.73
2023-04-20T05:21:29.909Z,9.20
2023-04-20T05:23:56.386Z,8.73
2023-04-20T05:26:22.861Z,13.13
2023-04-20T05:28:49.439Z,13.17
2023-04-20T05:31:16.047Z,12.07
2023-04-20T05:33:43.332Z,9.63
2023-04-20T05:36:10.376Z,11.63
2023-04-20T05:38:36.873Z,7.40
2023-04-20T05:41:03.366Z,7.03
2023-04-20T05:43:29.822Z,9.90
2023-04-20T05:45:56.353Z,10.40
2023-04-20T05:48:22.883Z,8.73
2023-04-20T05:50:49.311Z,6.13
2023-04-20T05:53:15.750Z,9.53
2023-04-20T05:55:42.204Z,9.90
2023-04-20T05:58:08.641Z,7.13
2023-04-20T06:00:35.585Z,10.80
2023-04-20T06:03:02.249Z,10.70
2023-04-20T06:05:29.051Z,8.43
2023-04-20T06:07:55.669Z,11.00
2023-04-20T06:10:22.231Z,11.57
2023-04-20T06:12:48.757Z,10.10
2023-04-20T06:15:15.405Z,10.93
2023-04-20T06:17:42.002Z,7.70
2023-04-20T06:20:11.704Z,13.13
2023-04-20T06:22:44.020Z,8.77
2023-04-20T06:25:10.703Z,10.00
2023-04-20T06:27:37.161Z,9.40
2023-04-20T06:30:04.202Z,10.80
2023-04-20T06:32:30.652Z,9.93
2023-04-20T06:34:57.302Z,7.73
2023-04-20T06:37:23.933Z,8.10
2023-04-20T06:39:54.858Z,7.80
2023-04-20T06:42:21.872Z,9.00
2023-04-20T06:44:49.398Z,7.67
2023-04-20T06:47:15.832Z,8.50
2023-04-20T06:49:43.414Z,8.07
2023-04-20T06:52:10.119Z,7.33
2023-04-20T06:54:36.698Z,9.37
2023-04-20T06:57:03.136Z,7.03
2023-04-20T06:59:29.637Z,8.07
2023-04-20T07:01:56.110Z,8.67
2023-04-20T07:04:22.609Z,9.87
2023-04-20T07:06:51.172Z,7.27
2023-04-20T07:09:19.517Z,7.17
2023-04-20T07:11:46.253Z,9.30
2023-04-20T07:14:12.728Z,7.90
2023-04-20T07:16:39.329Z,6.87
2023-04-20T07:19:05.955Z,6.50
2023-04-20T07:21:36.524Z,8.60
2023-04-20T07:24:03.592Z,7.13
2023-04-20T07:26:30.150Z,7.67
2023-04-20T07:28:56.614Z,8.37
2023-04-20T07:31:23.135Z,6.50
2023-04-20T07:33:49.561Z,7.17
2023-04-20T07:36:16.007Z,8.60
2023-04-20T07:38:42.465Z,7.10
2023-04-20T07:41:10.533Z,7.53
2023-04-20T07:43:37.392Z,8.93
2023-04-20T07:46:04.136Z,7.43
2023-04-20T07:48:31.933Z,8.10
2023-04-20T07:50:58.447Z,6.67
2023-04-20T07:53:25.004Z,5.53
2023-04-20T07:55:51.492Z,8.00
2023-04-20T07:58:17.996Z,6.33
2023-04-20T08:00:46.194Z,6.40
2023-04-20T08:03:13.182Z,6.57
2023-04-20T08:05:40.964Z,6.73
2023-04-20T08:08:07.630Z,6.30
2023-04-20T08:10:35.141Z,6.53
2023-04-20T08:13:01.719Z,6.63
2023-04-20T08:15:28.318Z,6.40
2023-04-20T08:17:54.889Z,7.33
2023-04-20T08:20:21.481Z,7.03
2023-04-20T08:22:49.233Z,7.40
2023-04-20T08:25:15.868Z,9.53
2023-04-20T08:27:42.322Z,6.93
2023-04-20T08:30:09.139Z,6.60
2023-04-20T08:32:35.856Z,7.43
2023-04-20T08:35:02.514Z,7.63
2023-04-20T08:37:31.301Z,7.13
2023-04-20T08:39:59.076Z,9.77
2023-04-20T08:42:25.712Z,9.23
2023-04-20T08:44:52.932Z,9.00
2023-04-20T08:47:20.928Z,7.77
2023-04-20T08:49:52.899Z,11.00
2023-04-20T08:52:19.405Z,7.67
2023-04-20T08:54:56.045Z,10.13
2023-04-20T08:57:22.913Z,8.53
2023-04-20T08:59:49.443Z,7.80
2023-04-20T09:02:16.164Z,7.40
2023-04-20T09:04:42.910Z,8.70
2023-04-20T09:07:20.832Z,7.97
2023-04-20T09:09:55.214Z,9.97
2023-04-20T09:12:22.870Z,8.23
2023-04-20T09:14:49.588Z,10.03
2023-04-20T09:17:17.926Z,9.60
2023-04-20T09:19:46.171Z,10.37
2023-04-20T09:22:12.763Z,9.63
2023-04-20T09:24:41.202Z,8.17
2023-04-20T09:27:18.609Z,7.83
2023-04-20T09:29:56.469Z,9.57
2023-04-20T09:32:23.910Z,8.47
2023-04-20T09:34:50.508Z,9.07
2023-04-20T09:37:17.748Z,7.83
2023-04-20T09:39:45.216Z,7.90
2023-04-20T09:42:13.598Z,7.53
2023-04-20T09:44:40.408Z,7.53
2023-04-20T09:47:08.519Z,7.23
2023-04-20T09:49:35.618Z,7.60
2023-04-20T09:52:03.668Z,6.10
2023-04-20T09:54:31.495Z,6.77
2023-04-20T09:57:02.050Z,7.47
2023-04-20T09:59:29.735Z,7.30
2023-04-20T10:01:56.490Z,7.50
2023-04-20T10:04:23.734Z,7.03
2023-04-20T10:06:58.105Z,8.27
2023-04-20T10:09:26.242Z,7.00
2023-04-20T10:11:54.633Z,7.07
2023-04-20T10:14:25.059Z,6.50
2023-04-20T10:17:05.131Z,9.80
2023-04-20T10:19:42.561Z,6.73
2023-04-20T10:22:10.975Z,7.60
2023-04-20T10:24:38.332Z,8.20
2023-04-20T10:27:16.731Z,9.43
2023-04-20T10:29:43.237Z,8.50
2023-04-20T10:32:21.811Z,6.57
2023-04-20T10:34:48.324Z,6.57
2023-04-20T10:37:14.797Z,9.03
2023-04-20T10:39:48.275Z,7.63
2023-04-20T10:42:17.442Z,7.47
2023-04-20T10:44:51.458Z,7.23
2023-04-20T10:47:26.228Z,8.47
2023-04-20T10:49:53.044Z,6.77
2023-04-20T10:52:32.499Z,7.33
2023-04-20T10:54:59.025Z,7.20
2023-04-20T10:57:25.491Z,6.80
2023-04-20T10:59:51.924Z,7.30
2023-04-20T11:02:18.595Z,6.83
2023-04-20T11:04:45.787Z,6.60
2023-04-20T11:07:15.084Z,6.43
2023-04-20T11:09:43.156Z,8.37
2023-04-20T11:12:14.745Z,8.70
2023-04-20T11:14:53.726Z,7.30
2023-04-20T11:17:20.772Z,6.67
2023-04-20T11:19:47.444Z,7.50
2023-04-20T11:22:23.455Z,7.77
2023-04-20T11:24:50.281Z,7.23
2023-04-20T11:27:22.129Z,8.87
2023-04-20T11:29:58.083Z,7.50
2023-04-20T11:32:24.857Z,8.23
2023-04-20T11:35:08.706Z,8.07
2023-04-20T11:37:46.979Z,7.20
2023-04-20T11:40:15.054Z,8.40
2023-04-20T11:42:41.740Z,7.30
2023-04-20T11:45:08.899Z,7.20
2023-04-20T11:47:35.406Z,8.53
2023-04-20T11:50:01.963Z,8.23
2023-04-20T11:52:28.377Z,7.77
2023-04-20T11:54:55.019Z,7.53
2023-04-20T11:57:23.773Z,7.57
2023-04-20T11:59:50.248Z,5.77
2023-04-20T12:02:16.812Z,6.73
2023-04-20T12:04:43.560Z,6.93
2023-04-20T12:07:10.248Z,7.33
2023-04-20T12:09:38.468Z,8.40
2023-04-20T12:12:05.917Z,8.07
2023-04-20T12:14:36.431Z,6.50
2023-04-20T12:17:04.512Z,7.07
2023-04-20T12:19:31.631Z,8.00
2023-04-20T12:21:58.119Z,8.33
2023-04-20T12:24:24.550Z,7.97
2023-04-20T12:26:51.017Z,6.93
2023-04-20T12:29:17.659Z,10.03
2023-04-20T12:31:44.321Z,8.43
2023-04-20T12:34:11.312Z,7.67
2023-04-20T12:36:37.867Z,8.70
2023-04-20T12:39:04.557Z,9.63
2023-04-20T12:41:31.352Z,9.70
2023-04-20T12:43:57.813Z,8.47
2023-04-20T12:46:25.288Z,8.27
2023-04-20T12:48:51.996Z,9.93
2023-04-20T12:51:18.467Z,7.00
2023-04-20T12:53:45.241Z,6.33
2023-04-20T12:56:11.878Z,6.87
2023-04-20T12:58:38.341Z,6.40
2023-04-20T13:01:04.858Z,5.50
2023-04-20T13:03:31.721Z,5.63
2023-04-20T13:05:59.631Z,6.17
2023-04-20T13:08:26.116Z,4.97
2023-04-20T13:10:52.776Z,5.40
2023-04-20T13:13:19.204Z,7.10
2023-04-20T13:15:45.655Z,6.40
2023-04-20T13:18:13.550Z,7.47
2023-04-20T13:20:40.712Z,8.60
2023-04-20T13:23:07.405Z,6.63
2023-04-20T13:25:34.101Z,8.07
2023-04-20T13:28:02.853Z,8.27
2023-04-20T13:30:29.561Z,6.60
2023-04-20T13:32:56.388Z,9.30
2023-04-20T13:35:23.798Z,9.77
2023-04-20T13:37:50.460Z,7.90
2023-04-20T13:40:16.981Z,8.63
2023-04-20T13:42:43.484Z,8.13
2023-04-20T13:45:10.494Z,12.70
2023-04-20T13:47:38.603Z,11.80
2023-04-20T13:50:06.928Z,13.67
2023-04-20T13:52:33.461Z,17.23
2023-04-20T13:54:59.956Z,20.13
2023-04-20T13:57:26.437Z,14.03
2023-04-20T13:59:53.118Z,13.40
2023-04-20T14:02:19.660Z,17.73
2023-04-20T14:04:46.304Z,14.17
2023-04-20T14:07:12.806Z,16.80
2023-04-20T14:09:39.272Z,9.93
2023-04-20T14:12:05.872Z,9.60
2023-04-20T14:14:33.399Z,7.33
2023-04-20T14:17:05.448Z,7.33
2023-04-20T14:19:46.898Z,6.80
2023-04-20T14:22:13.831Z,7.10
2023-04-20T14:24:41.307Z,7.73
2023-04-20T14:27:08.000Z,8.00
2023-04-20T14:29:34.525Z,8.17
2023-04-20T14:32:01.052Z,7.90
2023-04-20T14:34:27.516Z,6.83
2023-04-20T14:36:54.038Z,6.93
2023-04-20T14:39:20.838Z,8.17
2023-04-20T14:41:47.327Z,6.63
2023-04-20T14:44:13.835Z,6.90
2023-04-20T14:46:42.434Z,8.20
2023-04-20T14:49:09.383Z,6.77
2023-04-20T14:51:35.840Z,7.50
2023-04-20T14:54:02.293Z,6.63
2023-04-20T14:56:28.857Z,6.20
2023-04-20T14:58:57.121Z,5.60
2023-04-20T15:01:23.644Z,5.83
2023-04-20T15:03:50.400Z,6.03
2023-04-20T15:06:17.251Z,5.73
2023-04-20T15:08:43.737Z,6.17
2023-04-20T15:11:10.195Z,6.40
2023-04-20T15:13:40.948Z,7.00
2023-04-20T15:16:08.346Z,5.93
2023-04-20T15:18:35.067Z,7.77
2023-04-20T15:21:01.632Z,8.97
2023-04-20T15:23:28.053Z,10.63
2023-04-20T15:25:54.533Z,8.03
2023-04-20T15:28:21.091Z,8.57
2023-04-20T15:30:47.586Z,8.50
2023-04-20T15:33:14.105Z,9.33
2023-04-20T15:35:40.675Z,8.97
2023-04-20T15:38:07.135Z,8.80
2023-04-20T15:40:33.670Z,11.10
2023-04-20T15:43:00.463Z,8.93
2023-04-20T15:45:26.932Z,9.93
2023-04-20T15:47:53.506Z,8.90
2023-04-20T15:50:20.626Z,10.97
2023-04-20T15:52:49.694Z,10.47
2023-04-20T15:55:16.882Z,9.53
2023-04-20T15:57:44.678Z,9.43
2023-04-20T16:00:12.420Z,10.70
2023-04-20T16:02:40.413Z,9.40
2023-04-20T16:05:07.732Z,10.60
2023-04-20T16:07:34.333Z,11.43
2023-04-20T16:10:02.105Z,9.47
2023-04-20T16:12:28.759Z,10.47
2023-04-20T16:14:55.546Z,12.40
2023-04-20T16:17:22.209Z,10.33
2023-04-20T16:19:48.778Z,10.03
2023-04-20T16:22:15.216Z,12.93
2023-04-20T16:24:41.654Z,11.47
2023-04-20T16:27:08.158Z,9.93
2023-04-20T16:29:34.682Z,10.03
2023-04-20T16:32:01.142Z,8.40
2023-04-20T16:34:27.559Z,9.07
2023-04-20T16:36:53.986Z,8.60
2023-04-20T16:39:20.406Z,7.50
2023-04-20T16:41:46.867Z,9.00
2023-04-20T16:44:13.662Z,9.43
2023-04-20T16:46:41.898Z,7.70
2023-04-20T16:49:09.049Z,8.17
2023-04-20T16:51:35.502Z,7.87
2023-04-20T16:54:01.940Z,10.60
2023-04-20T16:56:28.406Z,12.40
2023-04-20T16:58:54.834Z,21.30
2023-04-20T17:01:21.376Z,11.40
2023-04-20T17:03:48.229Z,9.00
2023-04-20T17:06:14.868Z,8.87
2023-04-20T17:08:41.739Z,79.47
2023-04-20T17:11:08.276Z,10.67
2023-04-20T17:13:34.835Z,7.20
2023-04-20T17:16:01.489Z,8.17
2023-04-20T17:18:27.987Z,7.27
2023-04-20T17:20:57.176Z,7.80
2023-04-20T17:23:23.955Z,7.87
2023-04-20T17:25:51.274Z,8.20
2023-04-20T17:28:17.937Z,8.33
2023-04-20T17:30:44.729Z,11.20
2023-04-20T17:33:14.818Z,11.80
2023-04-20T17:35:41.536Z,10.33
2023-04-20T17:38:07.983Z,11.37
2023-04-20T17:40:34.830Z,8.57
2023-04-20T17:43:01.729Z,7.40
2023-04-20T17:45:28.178Z,8.80
2023-04-20T17:47:54.820Z,14.17
2023-04-20T17:50:22.596Z,14.47
2023-04-20T17:52:49.230Z,15.53
2023-04-20T17:55:15.808Z,18.33
2023-04-20T17:57:42.314Z,17.00
2023-04-20T18:00:11.590Z,8.83
2023-04-20T18:02:41.012Z,12.80
2023-04-20T18:05:07.921Z,10.80
2023-04-20T18:07:34.630Z,7.00
2023-04-20T18:10:01.173Z,7.67
2023-04-20T18:12:27.613Z,8.97
2023-04-20T18:14:54.048Z,7.63
2023-04-20T18:17:20.693Z,7.33
2023-04-20T18:19:47.214Z,8.37
2023-04-20T18:22:14.182Z,7.80
2023-04-20T18:24:40.726Z,7.03
2023-04-20T18:27:07.286Z,8.20
2023-04-20T18:29:33.763Z,6.87
2023-04-20T18:32:01.183Z,8.77
2023-04-20T18:34:30.894Z,9.43
2023-04-20T18:36:58.184Z,7.10
2023-04-20T18:39:25.222Z,6.60
2023-04-20T18:41:51.691Z,7.67
2023-04-20T18:44:18.538Z,11.03
2023-04-20T18:46:45.390Z,8.60
2023-04-20T18:49:12.032Z,9.70
2023-04-20T18:51:38.511Z,10.53
2023-04-20T18:54:05.115Z,9.80
2023-04-20T18:56:32.184Z,7.90
2023-04-20T18:58:59.451Z,9.53
2023-04-20T19:01:26.321Z,11.53
2023-04-20T19:03:53.200Z,19.57
2023-04-20T19:06:19.854Z,13.87
2023-04-20T19:08:46.469Z,10.27
2023-04-20T19:11:13.068Z,9.07
2023-04-20T19:13:44.329Z,12.70
2023-04-20T19:16:12.229Z,12.30
2023-04-20T19:18:39.404Z,17.20
2023-04-20T19:21:06.152Z,10.67
2023-04-20T19:23:32.916Z,10.70
2023-04-20T19:25:59.397Z,9.17
2023-04-20T19:28:26.042Z,9.33
2023-04-20T19:30:52.566Z,11.27
2023-04-20T19:33:20.991Z,10.77
2023-04-20T19:35:51.062Z,11.43
2023-04-20T19:38:18.980Z,11.57
2023-04-20T19:40:46.658Z,10.60
2023-04-20T19:43:13.323Z,12.10
2023-04-20T19:45:40.792Z,12.60
2023-04-20T19:48:07.531Z,9.97
2023-04-20T19:50:34.129Z,13.77
2023-04-20T19:53:00.707Z,11.03
2023-04-20T19:55:27.232Z,10.70
2023-04-20T19:57:53.686Z,13.00
2023-04-20T20:00:20.364Z,10.80
2023-04-20T20:02:46.987Z,12.10
2023-04-20T20:05:14.797Z,10.63
2023-04-20T20:07:41.410Z,11.77
2023-04-20T20:10:08.436Z,13.00
2023-04-20T20:12:35.136Z,12.97
2023-04-20T20:15:03.336Z,12.90
2023-04-20T20:17:29.842Z,13.57
2023-04-20T20:19:56.319Z,13.87
2023-04-20T20:22:22.826Z,13.00
2023-04-20T20:24:51.113Z,14.73
2023-04-20T20:27:18.138Z,14.40
2023-04-20T20:29:44.796Z,15.83
2023-04-20T20:32:11.293Z,14.73
2023-04-20T20:34:37.737Z,13.73
2023-04-20T20:37:04.390Z,16.53
2023-04-20T20:39:31.393Z,16.07
2023-04-20T20:41:58.048Z,16.03
2023-04-20T20:44:25.264Z,16.40
2023-04-20T20:46:51.779Z,18.73
2023-04-20T20:49:18.634Z,16.80
2023-04-20T20:51:45.542Z,18.30
2023-04-20T20:54:12.148Z,18.27
2023-04-20T20:56:38.600Z,16.00
2023-04-20T20:59:05.139Z,17.17
2023-04-20T21:01:31.690Z,16.37
2023-04-20T21:03:58.240Z,17.93
2023-04-20T21:06:24.972Z,16.33
2023-04-20T21:08:51.436Z,16.10
2023-04-20T21:11:17.976Z,15.87
2023-04-20T21:13:44.531Z,16.00
2023-04-20T21:16:11.008Z,18.10
2023-04-20T21:18:37.516Z,16.47
2023-04-20T21:21:04.147Z,17.27
2023-04-20T21:23:30.671Z,18.83
2023-04-20T21:25:57.131Z,16.27
2023-04-20T21:28:23.585Z,16.40
2023-04-20T21:30:50.012Z,16.23
2023-04-20T21:33:16.793Z,18.07
2023-04-20T21:35:43.279Z,18.20
2023-04-20T21:38:09.800Z,19.00
2023-04-20T21:40:36.255Z,18.43
2023-04-20T21:43:02.719Z,19.93
2023-04-20T21:45:29.159Z,19.60
2023-04-20T21:47:55.720Z,22.30
2023-04-20T21:50:26.900Z,20.30
2023-04-20T21:52:54.738Z,20.30
2023-04-20T21:55:21.366Z,21.33
2023-04-20T21:57:47.948Z,20.33
2023-04-20T22:00:15.420Z,19.37
2023-04-20T22:02:42.120Z,21.43
2023-04-20T22:05:09.594Z,19.00
2023-04-20T22:07:36.107Z,22.00
2023-04-20T22:10:03.151Z,20.03
2023-04-20T22:12:39.153Z,19.60
2023-04-20T22:15:11.258Z,22.33
2023-04-20T22:17:38.140Z,21.43
2023-04-20T22:20:09.609Z,20.93
2023-04-20T22:22:37.652Z,21.03
2023-04-20T22:25:05.164Z,21.93
2023-04-20T22:27:32.303Z,20.30
2023-04-20T22:29:58.872Z,23.67
2023-04-20T22:32:25.428Z,22.83
2023-04-20T22:34:51.998Z,24.40
2023-04-20T22:37:18.483Z,22.87
2023-04-20T22:39:45.064Z,24.27
2023-04-20T22:42:11.529Z,22.53
2023-04-20T22:44:37.976Z,22.87
2023-04-20T22:47:04.785Z,24.97
2023-04-20T22:49:31.816Z,24.47
2023-04-20T22:51:58.370Z,26.83
2023-04-20T22:54:25.152Z,25.23
2023-04-20T22:56:51.758Z,23.97
2023-04-20T22:59:18.562Z,24.83
2023-04-20T23:01:45.467Z,27.83
2023-04-20T23:04:12.164Z,26.90
2023-04-20T23:06:38.721Z,26.67
2023-04-20T23:09:08.401Z,27.23
2023-04-20T23:11:38.708Z,24.07
2023-04-20T23:14:06.493Z,24.37
2023-04-20T23:16:33.525Z,27.47
2023-04-20T23:19:00.547Z,31.13
2023-04-20T23:21:29.759Z,29.13
2023-04-20T23:23:57.671Z,29.93
2023-04-20T23:26:24.483Z,33.10
2023-04-20T23:28:53.722Z,29.23
2023-04-20T23:31:20.535Z,30.83
2023-04-20T23:33:47.979Z,28.63
2023-04-20T23:36:15.142Z,27.67
2023-04-20T23:38:41.765Z,27.77
2023-04-20T23:41:13.059Z,28.33
2023-04-20T23:43:39.767Z,27.93
2023-04-20T23:46:07.089Z,26.90
2023-04-20T23:48:34.281Z,26.97
2023-04-20T23:51:01.626Z,28.10
2023-04-20T23:53:28.276Z,26.07
2023-04-20T23:55:59.755Z,24.03
2023-04-20T23:58:27.400Z,24.30
